sensor_id;sensor_type;location;lat;lon;timestamp;P1;durP1;ratioP1;P2;durP2;ratioP2
43311;SDS011;30041;48.300;16.352;2023-05-20T00:02:25;2.40;;;1.75;;
43311;SDS011;30041;48.300;16.352;2023-05-20T00:04:50;3.42;;;1.42;;
43311;SDS011;30041;48.300;16.352;2023-05-20T00:07:16;1.67;;;1.40;;
43311;SDS011;30041;48.300;16.352;2023-05-20T00:09:41;1.92;;;1.60;;
43311;SDS011;30041;48.300;16.352;2023-05-20T00:12:07;2.33;;;1.45;;
43311;SDS011;30041;48.300;16.352;2023-05-20T00:14:32;2.47;;;1.70;;
43311;SDS011;30041;48.300;16.352;2023-05-20T00:16:58;2.50;;;1.55;;
43311;SDS011;30041;48.300;16.352;2023-05-20T00:19:23;1.77;;;1.40;;
43311;SDS011;30041;48.300;16.352;2023-05-20T00:21:49;2.15;;;1.50;;
43311;SDS011;30041;48.300;16.352;2023-05-20T00:24:14;2.75;;;1.55;;
43311;SDS011;30041;48.300;16.352;2023-05-20T00:26:40;3.80;;;1.50;;
43311;SDS011;30041;48.300;16.352;2023-05-20T00:29:05;2.80;;;1.50;;
43311;SDS011;30041;48.300;16.352;2023-05-20T00:31:31;2.55;;;1.52;;
43311;SDS011;30041;48.300;16.352;2023-05-20T00:33:56;2.20;;;1.70;;
43311;SDS011;30041;48.300;16.352;2023-05-20T00:36:22;3.53;;;1.48;;
43311;SDS011;30041;48.300;16.352;2023-05-20T00:38:47;1.80;;;1.58;;
43311;SDS011;30041;48.300;16.352;2023-05-20T00:41:13;2.13;;;1.50;;
43311;SDS011;30041;48.300;16.352;2023-05-20T00:43:38;1.73;;;1.40;;
43311;SDS011;30041;48.300;16.352;2023-05-20T00:46:04;2.08;;;1.50;;
43311;SDS011;30041;48.300;16.352;2023-05-20T00:48:31;1.50;;;1.20;;
43311;SDS011;30041;48.300;16.352;2023-05-20T00:51:04;1.80;;;1.40;;
43311;SDS011;30041;48.300;16.352;2023-05-20T00:53:29;2.22;;;1.48;;
43311;SDS011;30041;48.300;16.352;2023-05-20T00:55:55;2.28;;;1.60;;
43311;SDS011;30041;48.300;16.352;2023-05-20T00:58:20;2.95;;;1.58;;
43311;SDS011;30041;48.300;16.352;2023-05-20T01:00:46;2.20;;;1.40;;
43311;SDS011;30041;48.300;16.352;2023-05-20T01:03:12;3.10;;;1.60;;
43311;SDS011;30041;48.300;16.352;2023-05-20T01:05:38;1.92;;;1.40;;
43311;SDS011;30041;48.300;16.352;2023-05-20T01:08:03;2.05;;;1.60;;
43311;SDS011;30041;48.300;16.352;2023-05-20T01:10:29;1.80;;;1.50;;
43311;SDS011;30041;48.300;16.352;2023-05-20T01:12:57;1.85;;;1.40;;
43311;SDS011;30041;48.300;16.352;2023-05-20T01:15:28;2.55;;;1.83;;
43311;SDS011;30041;48.300;16.352;2023-05-20T01:17:56;2.15;;;1.55;;
43311;SDS011;30041;48.300;16.352;2023-05-20T01:20:25;1.55;;;1.40;;
43311;SDS011;30041;48.300;16.352;2023-05-20T01:22:54;2.22;;;1.50;;
43311;SDS011;30041;48.300;16.352;2023-05-20T01:25:20;2.03;;;1.67;;
43311;SDS011;30041;48.300;16.352;2023-05-20T01:27:49;2.30;;;1.65;;
43311;SDS011;30041;48.300;16.352;2023-05-20T01:30:16;2.40;;;1.80;;
43311;SDS011;30041;48.300;16.352;2023-05-20T01:32:43;2.50;;;1.83;;
43311;SDS011;30041;48.300;16.352;2023-05-20T01:35:12;2.28;;;1.67;;
43311;SDS011;30041;48.300;16.352;2023-05-20T01:37:39;2.00;;;1.45;;
43311;SDS011;30041;48.300;16.352;2023-05-20T01:40:09;1.90;;;1.60;;
43311;SDS011;30041;48.300;16.352;2023-05-20T01:42:38;2.35;;;1.70;;
43311;SDS011;30041;48.300;16.352;2023-05-20T01:45:05;2.53;;;1.38;;
43311;SDS011;30041;48.300;16.352;2023-05-20T01:47:31;2.55;;;1.50;;
43311;SDS011;30041;48.300;16.352;2023-05-20T01:49:57;2.75;;;1.60;;
43311;SDS011;30041;48.300;16.352;2023-05-20T01:52:22;2.47;;;1.75;;
43311;SDS011;30041;48.300;16.352;2023-05-20T01:54:48;1.90;;;1.52;;
43311;SDS011;30041;48.300;16.352;2023-05-20T01:57:13;2.55;;;1.80;;
43311;SDS011;30041;48.300;16.352;2023-05-20T01:59:39;1.95;;;1.60;;
43311;SDS011;30041;48.300;16.352;2023-05-20T02:02:04;1.92;;;1.60;;
43311;SDS011;30041;48.300;16.352;2023-05-20T02:04:30;2.50;;;1.80;;
43311;SDS011;30041;48.300;16.352;2023-05-20T02:06:55;2.53;;;1.65;;
43311;SDS011;30041;48.300;16.352;2023-05-20T02:09:21;2.00;;;1.63;;
43311;SDS011;30041;48.300;16.352;2023-05-20T02:11:46;2.20;;;1.60;;
43311;SDS011;30041;48.300;16.352;2023-05-20T02:14:12;2.75;;;1.85;;
43311;SDS011;30041;48.300;16.352;2023-05-20T02:16:37;2.13;;;1.52;;
43311;SDS011;30041;48.300;16.352;2023-05-20T02:19:03;2.35;;;1.73;;
43311;SDS011;30041;48.300;16.352;2023-05-20T02:21:28;2.00;;;1.60;;
43311;SDS011;30041;48.300;16.352;2023-05-20T02:23:54;1.92;;;1.60;;
43311;SDS011;30041;48.300;16.352;2023-05-20T02:26:19;2.28;;;1.58;;
43311;SDS011;30041;48.300;16.352;2023-05-20T02:28:45;3.05;;;1.75;;
43311;SDS011;30041;48.300;16.352;2023-05-20T02:31:10;2.83;;;1.70;;
43311;SDS011;30041;48.300;16.352;2023-05-20T02:33:36;1.95;;;1.63;;
43311;SDS011;30041;48.300;16.352;2023-05-20T02:36:02;2.00;;;1.60;;
43311;SDS011;30041;48.300;16.352;2023-05-20T02:38:28;1.90;;;1.60;;
43311;SDS011;30041;48.300;16.352;2023-05-20T02:40:54;2.35;;;1.95;;
43311;SDS011;30041;48.300;16.352;2023-05-20T02:43:20;2.00;;;1.55;;
43311;SDS011;30041;48.300;16.352;2023-05-20T02:45:45;1.92;;;1.52;;
43311;SDS011;30041;48.300;16.352;2023-05-20T02:48:11;2.38;;;1.52;;
43311;SDS011;30041;48.300;16.352;2023-05-20T02:50:39;4.13;;;1.88;;
43311;SDS011;30041;48.300;16.352;2023-05-20T02:53:05;2.35;;;1.90;;
43311;SDS011;30041;48.300;16.352;2023-05-20T02:55:32;2.47;;;1.95;;
43311;SDS011;30041;48.300;16.352;2023-05-20T02:57:59;2.20;;;1.55;;
43311;SDS011;30041;48.300;16.352;2023-05-20T03:00:24;2.40;;;1.88;;
43311;SDS011;30041;48.300;16.352;2023-05-20T03:02:50;2.28;;;1.60;;
43311;SDS011;30041;48.300;16.352;2023-05-20T03:05:15;1.98;;;1.60;;
43311;SDS011;30041;48.300;16.352;2023-05-20T03:07:41;2.00;;;1.73;;
43311;SDS011;30041;48.300;16.352;2023-05-20T03:10:06;2.60;;;1.80;;
43311;SDS011;30041;48.300;16.352;2023-05-20T03:12:33;2.17;;;1.80;;
43311;SDS011;30041;48.300;16.352;2023-05-20T03:14:58;2.72;;;1.80;;
43311;SDS011;30041;48.300;16.352;2023-05-20T03:17:24;2.22;;;1.77;;
43311;SDS011;30041;48.300;16.352;2023-05-20T03:19:49;2.35;;;1.95;;
43311;SDS011;30041;48.300;16.352;2023-05-20T03:22:14;2.40;;;1.85;;
43311;SDS011;30041;48.300;16.352;2023-05-20T03:24:40;2.45;;;1.90;;
43311;SDS011;30041;48.300;16.352;2023-05-20T03:27:05;2.13;;;1.63;;
43311;SDS011;30041;48.300;16.352;2023-05-20T03:29:31;2.45;;;1.80;;
43311;SDS011;30041;48.300;16.352;2023-05-20T03:31:56;2.72;;;1.80;;
43311;SDS011;30041;48.300;16.352;2023-05-20T03:34:22;2.05;;;1.80;;
43311;SDS011;30041;48.300;16.352;2023-05-20T03:36:49;2.03;;;1.67;;
43311;SDS011;30041;48.300;16.352;2023-05-20T03:39:15;3.08;;;1.90;;
43311;SDS011;30041;48.300;16.352;2023-05-20T03:41:41;2.15;;;1.92;;
43311;SDS011;30041;48.300;16.352;2023-05-20T03:44:06;2.20;;;1.85;;
43311;SDS011;30041;48.300;16.352;2023-05-20T03:46:32;3.50;;;1.90;;
43311;SDS011;30041;48.300;16.352;2023-05-20T03:48:57;2.40;;;2.00;;
43311;SDS011;30041;48.300;16.352;2023-05-20T03:51:23;2.35;;;2.10;;
43311;SDS011;30041;48.300;16.352;2023-05-20T03:53:48;2.15;;;1.75;;
43311;SDS011;30041;48.300;16.352;2023-05-20T03:56:14;2.72;;;1.90;;
43311;SDS011;30041;48.300;16.352;2023-05-20T03:58:39;2.42;;;2.00;;
43311;SDS011;30041;48.300;16.352;2023-05-20T04:01:06;1.83;;;1.63;;
43311;SDS011;30041;48.300;16.352;2023-05-20T04:03:32;2.85;;;1.83;;
43311;SDS011;30041;48.300;16.352;2023-05-20T04:05:57;2.35;;;1.88;;
43311;SDS011;30041;48.300;16.352;2023-05-20T04:08:23;3.35;;;2.03;;
43311;SDS011;30041;48.300;16.352;2023-05-20T04:10:49;2.55;;;2.10;;
43311;SDS011;30041;48.300;16.352;2023-05-20T04:13:14;2.22;;;1.70;;
43311;SDS011;30041;48.300;16.352;2023-05-20T04:15:40;2.65;;;2.00;;
43311;SDS011;30041;48.300;16.352;2023-05-20T04:18:05;2.40;;;2.03;;
43311;SDS011;30041;48.300;16.352;2023-05-20T04:20:31;2.58;;;2.15;;
43311;SDS011;30041;48.300;16.352;2023-05-20T04:22:56;3.72;;;2.03;;
43311;SDS011;30041;48.300;16.352;2023-05-20T04:25:22;2.40;;;2.00;;
43311;SDS011;30041;48.300;16.352;2023-05-20T04:27:47;2.33;;;1.88;;
43311;SDS011;30041;48.300;16.352;2023-05-20T04:30:13;2.50;;;2.00;;
43311;SDS011;30041;48.300;16.352;2023-05-20T04:32:38;2.10;;;1.80;;
43311;SDS011;30041;48.300;16.352;2023-05-20T04:35:04;2.65;;;2.22;;
43311;SDS011;30041;48.300;16.352;2023-05-20T04:37:30;3.08;;;2.10;;
43311;SDS011;30041;48.300;16.352;2023-05-20T04:39:55;2.40;;;2.00;;
43311;SDS011;30041;48.300;16.352;2023-05-20T04:42:21;2.00;;;1.70;;
43311;SDS011;30041;48.300;16.352;2023-05-20T04:44:47;2.92;;;2.33;;
43311;SDS011;30041;48.300;16.352;2023-05-20T04:47:13;2.70;;;2.00;;
43311;SDS011;30041;48.300;16.352;2023-05-20T04:49:39;2.70;;;2.03;;
43311;SDS011;30041;48.300;16.352;2023-05-20T04:52:05;2.60;;;2.20;;
43311;SDS011;30041;48.300;16.352;2023-05-20T04:54:31;2.83;;;2.35;;
43311;SDS011;30041;48.300;16.352;2023-05-20T04:56:56;2.83;;;2.10;;
43311;SDS011;30041;48.300;16.352;2023-05-20T04:59:22;2.10;;;1.83;;
43311;SDS011;30041;48.300;16.352;2023-05-20T05:01:47;2.60;;;2.08;;
43311;SDS011;30041;48.300;16.352;2023-05-20T05:04:13;2.50;;;1.88;;
43311;SDS011;30041;48.300;16.352;2023-05-20T05:06:38;2.72;;;2.13;;
43311;SDS011;30041;48.300;16.352;2023-05-20T05:09:04;2.45;;;2.10;;
43311;SDS011;30041;48.300;16.352;2023-05-20T05:11:29;2.30;;;2.00;;
43311;SDS011;30041;48.300;16.352;2023-05-20T05:13:55;2.20;;;1.90;;
43311;SDS011;30041;48.300;16.352;2023-05-20T05:16:21;2.90;;;1.98;;
43311;SDS011;30041;48.300;16.352;2023-05-20T05:18:46;2.53;;;1.92;;
43311;SDS011;30041;48.300;16.352;2023-05-20T05:21:12;2.83;;;2.22;;
43311;SDS011;30041;48.300;16.352;2023-05-20T05:23:37;2.08;;;1.88;;
43311;SDS011;30041;48.300;16.352;2023-05-20T05:26:03;2.90;;;2.28;;
43311;SDS011;30041;48.300;16.352;2023-05-20T05:28:29;2.30;;;1.90;;
43311;SDS011;30041;48.300;16.352;2023-05-20T05:30:54;2.60;;;1.90;;
43311;SDS011;30041;48.300;16.352;2023-05-20T05:33:22;2.50;;;1.90;;
43311;SDS011;30041;48.300;16.352;2023-05-20T05:35:47;2.33;;;1.90;;
43311;SDS011;30041;48.300;16.352;2023-05-20T05:38:13;2.40;;;1.80;;
43311;SDS011;30041;48.300;16.352;2023-05-20T05:40:39;2.47;;;2.10;;
43311;SDS011;30041;48.300;16.352;2023-05-20T05:43:05;2.53;;;1.90;;
43311;SDS011;30041;48.300;16.352;2023-05-20T05:45:31;2.00;;;1.80;;
43311;SDS011;30041;48.300;16.352;2023-05-20T05:47:56;14.20;;;2.38;;
43311;SDS011;30041;48.300;16.352;2023-05-20T05:50:22;16.33;;;3.85;;
43311;SDS011;30041;48.300;16.352;2023-05-20T05:52:47;8.95;;;3.60;;
43311;SDS011;30041;48.300;16.352;2023-05-20T05:55:13;5.95;;;3.80;;
43311;SDS011;30041;48.300;16.352;2023-05-20T05:57:38;7.22;;;3.58;;
43311;SDS011;30041;48.300;16.352;2023-05-20T06:00:04;10.75;;;4.47;;
43311;SDS011;30041;48.300;16.352;2023-05-20T06:02:30;23.10;;;6.28;;
43311;SDS011;30041;48.300;16.352;2023-05-20T06:04:55;9.50;;;4.82;;
43311;SDS011;30041;48.300;16.352;2023-05-20T06:07:21;12.27;;;4.82;;
43311;SDS011;30041;48.300;16.352;2023-05-20T06:09:47;8.90;;;4.10;;
43311;SDS011;30041;48.300;16.352;2023-05-20T06:12:13;11.25;;;4.38;;
43311;SDS011;30041;48.300;16.352;2023-05-20T06:14:38;8.48;;;3.70;;
43311;SDS011;30041;48.300;16.352;2023-05-20T06:17:04;7.75;;;3.83;;
43311;SDS011;30041;48.300;16.352;2023-05-20T06:19:29;8.35;;;3.80;;
43311;SDS011;30041;48.300;16.352;2023-05-20T06:21:55;7.60;;;3.60;;
43311;SDS011;30041;48.300;16.352;2023-05-20T06:24:21;5.43;;;3.53;;
43311;SDS011;30041;48.300;16.352;2023-05-20T06:26:46;8.60;;;3.55;;
43311;SDS011;30041;48.300;16.352;2023-05-20T06:29:12;10.05;;;3.90;;
43311;SDS011;30041;48.300;16.352;2023-05-20T06:31:37;11.75;;;3.70;;
43311;SDS011;30041;48.300;16.352;2023-05-20T06:34:03;10.77;;;4.43;;
43311;SDS011;30041;48.300;16.352;2023-05-20T06:36:28;14.80;;;9.90;;
43311;SDS011;30041;48.300;16.352;2023-05-20T06:38:54;16.25;;;8.57;;
43311;SDS011;30041;48.300;16.352;2023-05-20T06:41:22;13.40;;;7.30;;
43311;SDS011;30041;48.300;16.352;2023-05-20T06:43:48;11.02;;;7.25;;
43311;SDS011;30041;48.300;16.352;2023-05-20T06:46:13;13.77;;;8.32;;
43311;SDS011;30041;48.300;16.352;2023-05-20T06:48:39;14.20;;;8.27;;
43311;SDS011;30041;48.300;16.352;2023-05-20T06:51:06;12.52;;;8.68;;
43311;SDS011;30041;48.300;16.352;2023-05-20T06:53:32;14.23;;;8.68;;
43311;SDS011;30041;48.300;16.352;2023-05-20T06:55:58;9.57;;;6.95;;
43311;SDS011;30041;48.300;16.352;2023-05-20T06:58:23;10.40;;;6.43;;
43311;SDS011;30041;48.300;16.352;2023-05-20T07:00:49;7.22;;;6.10;;
43311;SDS011;30041;48.300;16.352;2023-05-20T07:03:14;7.97;;;6.13;;
43311;SDS011;30041;48.300;16.352;2023-05-20T07:05:40;8.70;;;5.80;;
43311;SDS011;30041;48.300;16.352;2023-05-20T07:08:05;7.32;;;5.47;;
43311;SDS011;30041;48.300;16.352;2023-05-20T07:10:31;7.65;;;5.03;;
43311;SDS011;30041;48.300;16.352;2023-05-20T07:12:56;6.18;;;4.65;;
43311;SDS011;30041;48.300;16.352;2023-05-20T07:15:22;6.15;;;4.78;;
43311;SDS011;30041;48.300;16.352;2023-05-20T07:17:47;6.55;;;4.50;;
43311;SDS011;30041;48.300;16.352;2023-05-20T07:20:13;9.82;;;4.72;;
43311;SDS011;30041;48.300;16.352;2023-05-20T07:22:38;5.90;;;3.95;;
43311;SDS011;30041;48.300;16.352;2023-05-20T07:25:04;6.88;;;3.83;;
43311;SDS011;30041;48.300;16.352;2023-05-20T07:27:30;6.40;;;3.65;;
43311;SDS011;30041;48.300;16.352;2023-05-20T07:29:55;7.10;;;3.95;;
43311;SDS011;30041;48.300;16.352;2023-05-20T07:32:21;4.22;;;3.55;;
43311;SDS011;30041;48.300;16.352;2023-05-20T07:34:46;4.53;;;3.15;;
43311;SDS011;30041;48.300;16.352;2023-05-20T07:37:12;4.45;;;3.20;;
43311;SDS011;30041;48.300;16.352;2023-05-20T07:39:37;4.40;;;3.40;;
43311;SDS011;30041;48.300;16.352;2023-05-20T07:42:03;4.15;;;3.10;;
43311;SDS011;30041;48.300;16.352;2023-05-20T07:44:28;3.80;;;2.80;;
43311;SDS011;30041;48.300;16.352;2023-05-20T07:46:54;3.53;;;2.97;;
43311;SDS011;30041;48.300;16.352;2023-05-20T07:49:20;3.60;;;2.78;;
43311;SDS011;30041;48.300;16.352;2023-05-20T07:51:45;3.40;;;2.70;;
43311;SDS011;30041;48.300;16.352;2023-05-20T07:54:11;4.22;;;2.80;;
43311;SDS011;30041;48.300;16.352;2023-05-20T07:56:37;3.20;;;2.80;;
43311;SDS011;30041;48.300;16.352;2023-05-20T07:59:02;2.97;;;2.45;;
43311;SDS011;30041;48.300;16.352;2023-05-20T08:01:28;3.13;;;2.60;;
43311;SDS011;30041;48.300;16.352;2023-05-20T08:03:54;3.45;;;2.28;;
43311;SDS011;30041;48.300;16.352;2023-05-20T08:06:20;3.08;;;2.55;;
43311;SDS011;30041;48.300;16.352;2023-05-20T08:08:46;3.10;;;2.30;;
43311;SDS011;30041;48.300;16.352;2023-05-20T08:11:12;2.90;;;2.33;;
43311;SDS011;30041;48.300;16.352;2023-05-20T08:13:38;2.80;;;2.20;;
43311;SDS011;30041;48.300;16.352;2023-05-20T08:16:04;2.70;;;2.25;;
43311;SDS011;30041;48.300;16.352;2023-05-20T08:18:29;2.58;;;2.03;;
43311;SDS011;30041;48.300;16.352;2023-05-20T08:20:55;3.78;;;2.30;;
43311;SDS011;30041;48.300;16.352;2023-05-20T08:23:21;2.38;;;1.95;;
43311;SDS011;30041;48.300;16.352;2023-05-20T08:25:46;2.70;;;2.20;;
43311;SDS011;30041;48.300;16.352;2023-05-20T08:28:12;2.67;;;2.17;;
43311;SDS011;30041;48.300;16.352;2023-05-20T08:30:38;2.90;;;2.40;;
43311;SDS011;30041;48.300;16.352;2023-05-20T08:33:03;2.67;;;1.98;;
43311;SDS011;30041;48.300;16.352;2023-05-20T08:35:29;2.10;;;1.90;;
43311;SDS011;30041;48.300;16.352;2023-05-20T08:37:55;2.38;;;1.95;;
43311;SDS011;30041;48.300;16.352;2023-05-20T08:40:21;2.45;;;1.90;;
43311;SDS011;30041;48.300;16.352;2023-05-20T08:42:47;2.17;;;1.60;;
43311;SDS011;30041;48.300;16.352;2023-05-20T08:45:17;2.10;;;1.67;;
43311;SDS011;30041;48.300;16.352;2023-05-20T08:47:43;2.10;;;1.70;;
43311;SDS011;30041;48.300;16.352;2023-05-20T08:50:10;2.50;;;1.73;;
43311;SDS011;30041;48.300;16.352;2023-05-20T08:52:37;4.85;;;3.38;;
43311;SDS011;30041;48.300;16.352;2023-05-20T08:55:10;7.60;;;5.50;;
43311;SDS011;30041;48.300;16.352;2023-05-20T08:57:49;10.73;;;5.47;;
43311;SDS011;30041;48.300;16.352;2023-05-20T09:00:15;8.80;;;5.95;;
43311;SDS011;30041;48.300;16.352;2023-05-20T09:02:42;8.38;;;6.35;;
43311;SDS011;30041;48.300;16.352;2023-05-20T09:05:09;8.48;;;6.13;;
43311;SDS011;30041;48.300;16.352;2023-05-20T09:07:35;7.55;;;5.85;;
43311;SDS011;30041;48.300;16.352;2023-05-20T09:10:01;7.97;;;5.90;;
43311;SDS011;30041;48.300;16.352;2023-05-20T09:12:26;7.60;;;6.05;;
43311;SDS011;30041;48.300;16.352;2023-05-20T09:14:52;7.65;;;5.80;;
43311;SDS011;30041;48.300;16.352;2023-05-20T09:17:17;8.10;;;6.05;;
43311;SDS011;30041;48.300;16.352;2023-05-20T09:19:43;10.35;;;5.97;;
43311;SDS011;30041;48.300;16.352;2023-05-20T09:22:08;8.20;;;6.10;;
43311;SDS011;30041;48.300;16.352;2023-05-20T09:24:34;8.63;;;5.82;;
43311;SDS011;30041;48.300;16.352;2023-05-20T09:26:59;10.43;;;8.40;;
43311;SDS011;30041;48.300;16.352;2023-05-20T09:29:25;16.20;;;9.70;;
43311;SDS011;30041;48.300;16.352;2023-05-20T09:31:50;15.05;;;10.07;;
43311;SDS011;30041;48.300;16.352;2023-05-20T09:34:16;11.90;;;8.85;;
43311;SDS011;30041;48.300;16.352;2023-05-20T09:36:42;10.20;;;7.93;;
43311;SDS011;30041;48.300;16.352;2023-05-20T09:39:11;10.82;;;7.88;;
43311;SDS011;30041;48.300;16.352;2023-05-20T09:41:40;9.80;;;7.40;;
43311;SDS011;30041;48.300;16.352;2023-05-20T09:44:13;9.05;;;7.93;;
43311;SDS011;30041;48.300;16.352;2023-05-20T09:46:39;9.52;;;7.05;;
43311;SDS011;30041;48.300;16.352;2023-05-20T09:49:05;9.18;;;6.85;;
43311;SDS011;30041;48.300;16.352;2023-05-20T09:51:32;8.70;;;7.22;;
43311;SDS011;30041;48.300;16.352;2023-05-20T09:53:58;8.40;;;7.30;;
43311;SDS011;30041;48.300;16.352;2023-05-20T09:56:24;9.07;;;6.82;;
43311;SDS011;30041;48.300;16.352;2023-05-20T09:58:52;8.13;;;6.60;;
43311;SDS011;30041;48.300;16.352;2023-05-20T10:01:20;8.30;;;6.65;;
43311;SDS011;30041;48.300;16.352;2023-05-20T10:03:45;7.97;;;5.85;;
43311;SDS011;30041;48.300;16.352;2023-05-20T10:06:17;7.78;;;6.20;;
43311;SDS011;30041;48.300;16.352;2023-05-20T10:11:55;10.05;;;7.15;;
43311;SDS011;30041;48.300;16.352;2023-05-20T10:17:12;9.25;;;7.10;;
43311;SDS011;30041;48.300;16.352;2023-05-20T10:19:45;8.07;;;6.38;;
43311;SDS011;30041;48.300;16.352;2023-05-20T10:22:11;11.00;;;6.85;;
43311;SDS011;30041;48.300;16.352;2023-05-20T10:24:37;9.40;;;6.78;;
43311;SDS011;30041;48.300;16.352;2023-05-20T10:27:06;10.18;;;6.85;;
43311;SDS011;30041;48.300;16.352;2023-05-20T10:29:48;8.55;;;6.78;;
43311;SDS011;30041;48.300;16.352;2023-05-20T10:32:24;8.32;;;6.03;;
43311;SDS011;30041;48.300;16.352;2023-05-20T10:34:51;8.27;;;6.70;;
43311;SDS011;30041;48.300;16.352;2023-05-20T10:37:27;8.40;;;6.47;;
43311;SDS011;30041;48.300;16.352;2023-05-20T10:42:49;9.38;;;6.55;;
43311;SDS011;30041;48.300;16.352;2023-05-20T10:45:27;9.98;;;6.40;;
43311;SDS011;30041;48.300;16.352;2023-05-20T10:47:54;9.10;;;6.13;;
43311;SDS011;30041;48.300;16.352;2023-05-20T10:50:27;9.25;;;6.28;;
43311;SDS011;30041;48.300;16.352;2023-05-20T10:53:04;11.52;;;6.30;;
43311;SDS011;30041;48.300;16.352;2023-05-20T10:55:36;8.43;;;5.88;;
43311;SDS011;30041;48.300;16.352;2023-05-20T10:58:03;10.23;;;5.15;;
43311;SDS011;30041;48.300;16.352;2023-05-20T11:00:30;8.55;;;4.90;;
43311;SDS011;30041;48.300;16.352;2023-05-20T11:02:56;6.63;;;4.57;;
43311;SDS011;30041;48.300;16.352;2023-05-20T11:05:22;7.50;;;4.45;;
43311;SDS011;30041;48.300;16.352;2023-05-20T11:07:48;6.70;;;4.35;;
43311;SDS011;30041;48.300;16.352;2023-05-20T11:10:13;6.18;;;4.15;;
43311;SDS011;30041;48.300;16.352;2023-05-20T11:12:39;5.82;;;4.22;;
43311;SDS011;30041;48.300;16.352;2023-05-20T11:15:04;7.85;;;4.10;;
43311;SDS011;30041;48.300;16.352;2023-05-20T11:17:30;5.20;;;3.40;;
43311;SDS011;30041;48.300;16.352;2023-05-20T11:19:56;4.60;;;3.50;;
43311;SDS011;30041;48.300;16.352;2023-05-20T11:22:21;7.00;;;3.95;;
43311;SDS011;30041;48.300;16.352;2023-05-20T11:24:47;4.72;;;3.50;;
43311;SDS011;30041;48.300;16.352;2023-05-20T11:27:12;5.60;;;3.40;;
43311;SDS011;30041;48.300;16.352;2023-05-20T11:29:38;4.53;;;3.78;;
43311;SDS011;30041;48.300;16.352;2023-05-20T11:32:04;6.82;;;3.47;;
43311;SDS011;30041;48.300;16.352;2023-05-20T11:34:34;4.10;;;3.30;;
43311;SDS011;30041;48.300;16.352;2023-05-20T11:37:01;4.40;;;3.20;;
43311;SDS011;30041;48.300;16.352;2023-05-20T11:39:29;3.97;;;2.97;;
43311;SDS011;30041;48.300;16.352;2023-05-20T11:41:55;3.50;;;2.70;;
43311;SDS011;30041;48.300;16.352;2023-05-20T11:44:22;4.07;;;2.88;;
43311;SDS011;30041;48.300;16.352;2023-05-20T11:46:48;3.53;;;3.00;;
43311;SDS011;30041;48.300;16.352;2023-05-20T11:49:14;5.47;;;2.47;;
43311;SDS011;30041;48.300;16.352;2023-05-20T11:51:41;4.25;;;2.60;;
43311;SDS011;30041;48.300;16.352;2023-05-20T11:54:08;5.38;;;2.90;;
43311;SDS011;30041;48.300;16.352;2023-05-20T11:56:34;4.00;;;3.50;;
43311;SDS011;30041;48.300;16.352;2023-05-20T11:59:00;8.13;;;4.30;;
43311;SDS011;30041;48.300;16.352;2023-05-20T12:01:33;6.25;;;3.40;;
43311;SDS011;30041;48.300;16.352;2023-05-20T12:04:00;6.88;;;3.67;;
43311;SDS011;30041;48.300;16.352;2023-05-20T12:06:26;7.00;;;3.45;;
43311;SDS011;30041;48.300;16.352;2023-05-20T12:08:51;4.60;;;2.92;;
43311;SDS011;30041;48.300;16.352;2023-05-20T12:11:17;4.60;;;3.20;;
43311;SDS011;30041;48.300;16.352;2023-05-20T12:13:42;5.88;;;2.90;;
43311;SDS011;30041;48.300;16.352;2023-05-20T12:16:08;5.72;;;2.78;;
43311;SDS011;30041;48.300;16.352;2023-05-20T12:18:33;3.65;;;2.65;;
43311;SDS011;30041;48.300;16.352;2023-05-20T12:20:59;4.78;;;2.33;;
43311;SDS011;30041;48.300;16.352;2023-05-20T12:23:25;3.83;;;2.67;;
43311;SDS011;30041;48.300;16.352;2023-05-20T12:25:51;3.47;;;2.10;;
43311;SDS011;30041;48.300;16.352;2023-05-20T12:28:16;3.63;;;2.25;;
43311;SDS011;30041;48.300;16.352;2023-05-20T12:30:42;4.60;;;2.20;;
43311;SDS011;30041;48.300;16.352;2023-05-20T12:33:08;3.08;;;2.10;;
43311;SDS011;30041;48.300;16.352;2023-05-20T12:35:40;2.35;;;2.00;;
43311;SDS011;30041;48.300;16.352;2023-05-20T12:38:07;2.20;;;1.70;;
43311;SDS011;30041;48.300;16.352;2023-05-20T12:40:33;3.45;;;2.08;;
43311;SDS011;30041;48.300;16.352;2023-05-20T12:43:00;3.42;;;1.80;;
43311;SDS011;30041;48.300;16.352;2023-05-20T12:45:26;2.35;;;1.67;;
43311;SDS011;30041;48.300;16.352;2023-05-20T12:47:54;2.47;;;1.70;;
43311;SDS011;30041;48.300;16.352;2023-05-20T12:50:20;5.20;;;4.10;;
43311;SDS011;30041;48.300;16.352;2023-05-20T12:52:46;8.32;;;5.20;;
43311;SDS011;30041;48.300;16.352;2023-05-20T12:55:12;8.07;;;5.03;;
43311;SDS011;30041;48.300;16.352;2023-05-20T12:57:46;7.20;;;5.05;;
43311;SDS011;30041;48.300;16.352;2023-05-20T13:00:12;8.93;;;5.38;;
43311;SDS011;30041;48.300;16.352;2023-05-20T13:02:40;7.07;;;5.15;;
43311;SDS011;30041;48.300;16.352;2023-05-20T13:05:06;7.15;;;4.95;;
43311;SDS011;30041;48.300;16.352;2023-05-20T13:07:33;7.53;;;5.40;;
43311;SDS011;30041;48.300;16.352;2023-05-20T13:09:58;6.70;;;4.82;;
43311;SDS011;30041;48.300;16.352;2023-05-20T13:12:24;9.00;;;5.07;;
43311;SDS011;30041;48.300;16.352;2023-05-20T13:14:50;7.45;;;5.20;;
43311;SDS011;30041;48.300;16.352;2023-05-20T13:17:15;6.07;;;4.78;;
43311;SDS011;30041;48.300;16.352;2023-05-20T13:19:41;7.72;;;5.40;;
43311;SDS011;30041;48.300;16.352;2023-05-20T13:22:06;6.75;;;5.03;;
43311;SDS011;30041;48.300;16.352;2023-05-20T13:24:32;8.85;;;5.63;;
43311;SDS011;30041;48.300;16.352;2023-05-20T13:26:58;8.25;;;5.25;;
43311;SDS011;30041;48.300;16.352;2023-05-20T13:29:24;7.35;;;4.82;;
43311;SDS011;30041;48.300;16.352;2023-05-20T13:31:49;8.63;;;5.40;;
43311;SDS011;30041;48.300;16.352;2023-05-20T13:34:15;5.40;;;4.90;;
43311;SDS011;30041;48.300;16.352;2023-05-20T13:36:40;6.15;;;5.18;;
43311;SDS011;30041;48.300;16.352;2023-05-20T13:39:06;6.50;;;5.10;;
43311;SDS011;30041;48.300;16.352;2023-05-20T13:41:31;13.52;;;5.32;;
43311;SDS011;30041;48.300;16.352;2023-05-20T13:43:57;14.40;;;5.50;;
43311;SDS011;30041;48.300;16.352;2023-05-20T13:46:22;9.07;;;5.30;;
43311;SDS011;30041;48.300;16.352;2023-05-20T13:48:48;6.95;;;6.07;;
43311;SDS011;30041;48.300;16.352;2023-05-20T13:51:14;6.88;;;5.53;;
43311;SDS011;30041;48.300;16.352;2023-05-20T13:53:40;9.57;;;5.45;;
43311;SDS011;30041;48.300;16.352;2023-05-20T13:56:05;8.75;;;5.90;;
43311;SDS011;30041;48.300;16.352;2023-05-20T13:58:31;6.85;;;5.50;;
43311;SDS011;30041;48.300;16.352;2023-05-20T14:00:57;9.52;;;5.38;;
43311;SDS011;30041;48.300;16.352;2023-05-20T14:03:23;7.45;;;5.30;;
43311;SDS011;30041;48.300;16.352;2023-05-20T14:05:48;7.07;;;5.40;;
43311;SDS011;30041;48.300;16.352;2023-05-20T14:08:14;7.47;;;5.40;;
43311;SDS011;30041;48.300;16.352;2023-05-20T14:10:40;7.13;;;4.78;;
43311;SDS011;30041;48.300;16.352;2023-05-20T14:13:05;6.90;;;4.60;;
43311;SDS011;30041;48.300;16.352;2023-05-20T14:15:31;7.05;;;4.10;;
43311;SDS011;30041;48.300;16.352;2023-05-20T14:17:56;6.22;;;3.83;;
43311;SDS011;30041;48.300;16.352;2023-05-20T14:20:23;7.30;;;3.88;;
43311;SDS011;30041;48.300;16.352;2023-05-20T14:22:49;6.95;;;4.10;;
43311;SDS011;30041;48.300;16.352;2023-05-20T14:25:16;5.82;;;3.70;;
43311;SDS011;30041;48.300;16.352;2023-05-20T14:27:42;4.00;;;3.50;;
43311;SDS011;30041;48.300;16.352;2023-05-20T14:30:08;6.03;;;3.28;;
43311;SDS011;30041;48.300;16.352;2023-05-20T14:32:34;4.07;;;3.15;;
43311;SDS011;30041;48.300;16.352;2023-05-20T14:34:59;3.97;;;3.50;;
43311;SDS011;30041;48.300;16.352;2023-05-20T14:37:24;9.00;;;5.35;;